메인 페이지
METAR-TAF:

METAR-TAF

공항 :

코펜하겐 카스트럽 국제공항

코펜하겐, 덴마크

위도: 55-37N, 경도: 012-39E, 고도: 5m

현재 날씨관측

예보는 32분 전, 04:20시(UTC)에 발표되었습니다.
북서12kt
온도 11°C
습도 82%
기압 1021 hPa
시정 10km 이상
고도 2500ft 상공 구름 조금
고도 8000ft 상공 구름 보통

METAR: EKCH 220420Z 31012KT 9999 FEW025 SCT080 11/08 Q1021 NOSIG

시각: 06:52 (04:52 UTC)

예보

예보는 5 시간 33분 전, 23:19시(UTC)에 발표되었습니다.
예보 대상 시간: 22일 00시부터 22일 24시까지 (UTC)
서남서14kt
시정: 5000m
고도 1500ft 상공 구름 많음
전환 중
22일 00시부터 22일 02시까지 (UTC)
시정: 2500m
고도 800ft 상공 구름 많음
비, 이슬비, 박무
전환 중
22일 02시부터 22일 04시까지 (UTC)
북서14kt
시정 10km 이상
고도 2500ft 상공 구름 보통
일시적
22일 09시부터 22일 15시까지 (UTC)
서북서18kt, 순간 최대 풍속 30kt
전환 중
22일 20시부터 22일 23시까지 (UTC)
서남서12kt

TAF: EKCH 212319Z 2200/2224 24014KT 5000 BKN015 BECMG 2200/2202 2500 RADZ BR BKN008 BECMG 2202/2204 31014KT 9999 NSW SCT025 TEMPO 2209/2215 30018G30KT BECMG 2220/2223 25012KT

4,000개 이상의 공항 관측 자료 및 예보 (METAR 및 TAF 보고).

지도상에서 검색 가능한 기상관측소가 노란 점과 빨간 점으로 표시되어 있습니다.

기상관측소 명을 보려면 표시 위로 마우스를 이동하세요.

날씨 관측과 예보를 보려면 클릭하세요.

지도 변경 : 확대하려면 엑스 표시가 있는 녹색 버튼, 축소하려면 빼기 표시가 있는 녹색 버튼, 다음 페이지의 지도를 보려면 녹색 화살표를 클릭하세요.


METAR-TAF: